Ana Sayfa
METAR-TAF:

METAR-TAF

Havaalanları :

Schenectady County Airport

Schenectady, New York, Amerika Birleşik Devletleri

Enlem: 42-51N, Boylam: 073-56W, yükseklik: 115 m

Güncel hava durumu gözlemi

Rapor saat 18:55 UTC de 4 saat ve 46 dakika önce yapıldı.
Rüzgar güneydan 6 kt
Sıcaklık -1°C
Nem 59%
Basınç 1027 hPa
Görüş mesafesi: 24.1 km
15000 ft yükseklikte parçalı bulutlu
25000 ft yükseklikte parçalı çok bulutlu

METAR: KSCH 081855Z 18006KT 15SM SCT150 BKN250 M01/M08 A3034

Saat: 18:41 (23:41 UTC)


TAF: eksik

4.000'den fazla havaalanı için hava durumu gözlemleri ve tahminleri (METAR ve TAF raporları).

Kullanılabilir istasyonlar harita üzerinde sarı ve kırmızı noktalarla gösterilir.

İstasyonun adını görmek için fareyi noktanın üzerinde gezdirin.

Sonrasında hava gözlem ve tahminlerini görmek için tıklayın.

Haritayı değiştirmek için: yaklaştırmak için siyah artı işaretli yeşil düğmeye ve uzaklaştırmak için de eksi işaretli düğmeye hızla tıklayın; bitişik haritalar için yeşil okları kullanın.


METAR-TAF: